sensor_id;sensor_type;location;lat;lon;timestamp;P1;durP1;ratioP1;P2;durP2;ratioP2
19645;SDS011;9971;52.446;13.452;2023-05-19T00:04:10;3.13;;;1.80;;
19645;SDS011;9971;52.446;13.452;2023-05-19T00:09:13;3.55;;;1.70;;
19645;SDS011;9971;52.446;13.452;2023-05-19T00:14:15;4.50;;;1.42;;
19645;SDS011;9971;52.446;13.452;2023-05-19T00:19:19;4.35;;;1.87;;
19645;SDS011;9971;52.446;13.452;2023-05-19T00:24:22;4.43;;;1.80;;
19645;SDS011;9971;52.446;13.452;2023-05-19T00:29:24;2.17;;;1.42;;
19645;SDS011;9971;52.446;13.452;2023-05-19T00:34:27;7.28;;;2.00;;
19645;SDS011;9971;52.446;13.452;2023-05-19T00:39:30;3.53;;;1.80;;
19645;SDS011;9971;52.446;13.452;2023-05-19T00:44:35;3.10;;;1.50;;
19645;SDS011;9971;52.446;13.452;2023-05-19T00:49:35;3.60;;;1.62;;
19645;SDS011;9971;52.446;13.452;2023-05-19T00:54:38;2.08;;;1.47;;
19645;SDS011;9971;52.446;13.452;2023-05-19T00:59:40;3.17;;;1.55;;
19645;SDS011;9971;52.446;13.452;2023-05-19T01:04:45;2.40;;;1.50;;
19645;SDS011;9971;52.446;13.452;2023-05-19T01:09:47;3.00;;;1.70;;
19645;SDS011;9971;52.446;13.452;2023-05-19T01:14:49;2.40;;;1.33;;
19645;SDS011;9971;52.446;13.452;2023-05-19T01:19:54;4.65;;;2.00;;
19645;SDS011;9971;52.446;13.452;2023-05-19T01:30:15;3.07;;;1.47;;
19645;SDS011;9971;52.446;13.452;2023-05-19T01:35:20;3.03;;;1.50;;
19645;SDS011;9971;52.446;13.452;2023-05-19T01:40:22;2.70;;;1.40;;
19645;SDS011;9971;52.446;13.452;2023-05-19T01:45:25;3.90;;;1.95;;
19645;SDS011;9971;52.446;13.452;2023-05-19T01:50:26;1.98;;;1.37;;
19645;SDS011;9971;52.446;13.452;2023-05-19T01:55:28;3.87;;;1.52;;
19645;SDS011;9971;52.446;13.452;2023-05-19T02:11:06;4.15;;;1.50;;
19645;SDS011;9971;52.446;13.452;2023-05-19T02:16:08;3.37;;;1.73;;
19645;SDS011;9971;52.446;13.452;2023-05-19T02:21:13;2.60;;;1.60;;
19645;SDS011;9971;52.446;13.452;2023-05-19T02:26:16;4.83;;;1.52;;
19645;SDS011;9971;52.446;13.452;2023-05-19T02:31:19;2.97;;;1.80;;
19645;SDS011;9971;52.446;13.452;2023-05-19T02:36:23;1.83;;;1.40;;
19645;SDS011;9971;52.446;13.452;2023-05-19T02:46:56;3.20;;;1.50;;
19645;SDS011;9971;52.446;13.452;2023-05-19T02:51:58;4.05;;;1.50;;
19645;SDS011;9971;52.446;13.452;2023-05-19T02:57:01;3.58;;;1.47;;
19645;SDS011;9971;52.446;13.452;2023-05-19T03:02:04;1.80;;;1.47;;
19645;SDS011;9971;52.446;13.452;2023-05-19T03:07:08;2.97;;;1.40;;
19645;SDS011;9971;52.446;13.452;2023-05-19T03:12:09;2.80;;;1.60;;
19645;SDS011;9971;52.446;13.452;2023-05-19T03:17:12;3.17;;;1.50;;
19645;SDS011;9971;52.446;13.452;2023-05-19T03:22:15;2.22;;;1.17;;
19645;SDS011;9971;52.446;13.452;2023-05-19T03:27:17;3.58;;;1.40;;
19645;SDS011;9971;52.446;13.452;2023-05-19T03:32:20;2.67;;;1.65;;
19645;SDS011;9971;52.446;13.452;2023-05-19T03:37:23;1.65;;;1.30;;
19645;SDS011;9971;52.446;13.452;2023-05-19T03:42:26;2.77;;;1.70;;
19645;SDS011;9971;52.446;13.452;2023-05-19T03:47:29;1.65;;;1.52;;
19645;SDS011;9971;52.446;13.452;2023-05-19T03:52:33;2.60;;;1.70;;
19645;SDS011;9971;52.446;13.452;2023-05-19T03:57:38;2.17;;;1.23;;
19645;SDS011;9971;52.446;13.452;2023-05-19T04:02:40;2.72;;;1.75;;
19645;SDS011;9971;52.446;13.452;2023-05-19T04:07:42;2.90;;;1.70;;
19645;SDS011;9971;52.446;13.452;2023-05-19T04:12:45;3.45;;;1.42;;
19645;SDS011;9971;52.446;13.452;2023-05-19T04:17:49;2.90;;;1.70;;
19645;SDS011;9971;52.446;13.452;2023-05-19T04:22:52;1.82;;;1.30;;
19645;SDS011;9971;52.446;13.452;2023-05-19T04:28:11;2.80;;;1.50;;
19645;SDS011;9971;52.446;13.452;2023-05-19T04:55:02;2.03;;;1.63;;
19645;SDS011;9971;52.446;13.452;2023-05-19T05:00:06;2.62;;;1.57;;
19645;SDS011;9971;52.446;13.452;2023-05-19T05:05:09;2.10;;;1.60;;
19645;SDS011;9971;52.446;13.452;2023-05-19T05:10:12;2.35;;;1.72;;
19645;SDS011;9971;52.446;13.452;2023-05-19T05:15:18;2.20;;;1.70;;
19645;SDS011;9971;52.446;13.452;2023-05-19T05:20:23;1.95;;;1.45;;
19645;SDS011;9971;52.446;13.452;2023-05-19T05:25:26;3.53;;;1.97;;
19645;SDS011;9971;52.446;13.452;2023-05-19T05:30:32;4.17;;;1.87;;
19645;SDS011;9971;52.446;13.452;2023-05-19T05:35:43;3.63;;;1.87;;
19645;SDS011;9971;52.446;13.452;2023-05-19T06:02:23;2.80;;;1.90;;
19645;SDS011;9971;52.446;13.452;2023-05-19T06:07:26;2.40;;;1.60;;
19645;SDS011;9971;52.446;13.452;2023-05-19T06:12:29;2.52;;;1.85;;
19645;SDS011;9971;52.446;13.452;2023-05-19T06:17:46;2.27;;;1.90;;
19645;SDS011;9971;52.446;13.452;2023-05-19T06:22:57;1.70;;;1.53;;
19645;SDS011;9971;52.446;13.452;2023-05-19T06:33:36;2.12;;;1.70;;
19645;SDS011;9971;52.446;13.452;2023-05-19T06:38:56;3.37;;;1.92;;
19645;SDS011;9971;52.446;13.452;2023-05-19T06:44:17;4.80;;;2.00;;
19645;SDS011;9971;52.446;13.452;2023-05-19T06:49:38;1.80;;;1.70;;
19645;SDS011;9971;52.446;13.452;2023-05-19T06:54:46;2.93;;;1.73;;
19645;SDS011;9971;52.446;13.452;2023-05-19T07:00:08;1.80;;;1.47;;
19645;SDS011;9971;52.446;13.452;2023-05-19T07:05:25;1.80;;;1.43;;
19645;SDS011;9971;52.446;13.452;2023-05-19T07:16:11;3.13;;;1.90;;
19645;SDS011;9971;52.446;13.452;2023-05-19T07:21:34;2.93;;;2.10;;
19645;SDS011;9971;52.446;13.452;2023-05-19T07:26:42;3.27;;;1.87;;
19645;SDS011;9971;52.446;13.452;2023-05-19T07:31:56;3.80;;;2.13;;
19645;SDS011;9971;52.446;13.452;2023-05-19T08:04:01;1.90;;;1.80;;
19645;SDS011;9971;52.446;13.452;2023-05-19T08:30:51;1.97;;;1.80;;
19645;SDS011;9971;52.446;13.452;2023-05-19T08:52:26;1.70;;;1.50;;
19645;SDS011;9971;52.446;13.452;2023-05-19T08:57:28;1.57;;;1.47;;
19645;SDS011;9971;52.446;13.452;2023-05-19T09:02:31;1.73;;;1.33;;
19645;SDS011;9971;52.446;13.452;2023-05-19T09:07:39;2.98;;;1.30;;
19645;SDS011;9971;52.446;13.452;2023-05-19T09:12:47;1.60;;;1.17;;
19645;SDS011;9971;52.446;13.452;2023-05-19T09:17:56;2.20;;;1.13;;
19645;SDS011;9971;52.446;13.452;2023-05-19T09:23:05;1.40;;;1.30;;
19645;SDS011;9971;52.446;13.452;2023-05-19T09:28:18;1.37;;;1.17;;
19645;SDS011;9971;52.446;13.452;2023-05-19T09:33:38;4.95;;;1.30;;
19645;SDS011;9971;52.446;13.452;2023-05-19T09:38:46;1.70;;;1.20;;
19645;SDS011;9971;52.446;13.452;2023-05-19T09:43:53;2.22;;;0.88;;
19645;SDS011;9971;52.446;13.452;2023-05-19T09:49:08;1.25;;;1.10;;
19645;SDS011;9971;52.446;13.452;2023-05-19T09:54:19;2.30;;;1.57;;
19645;SDS011;9971;52.446;13.452;2023-05-19T09:59:38;3.33;;;1.27;;
19645;SDS011;9971;52.446;13.452;2023-05-19T10:04:48;1.72;;;1.32;;
19645;SDS011;9971;52.446;13.452;2023-05-19T10:09:57;1.43;;;1.30;;
19645;SDS011;9971;52.446;13.452;2023-05-19T10:15:08;2.90;;;1.30;;
19645;SDS011;9971;52.446;13.452;2023-05-19T10:47:28;0.80;;;0.80;;
19645;SDS011;9971;52.446;13.452;2023-05-19T11:09:28;2.23;;;1.00;;
19645;SDS011;9971;52.446;13.452;2023-05-19T13:02:17;1.43;;;1.33;;
19645;SDS011;9971;52.446;13.452;2023-05-19T13:07:20;3.58;;;1.82;;
19645;SDS011;9971;52.446;13.452;2023-05-19T13:12:22;1.35;;;1.25;;
19645;SDS011;9971;52.446;13.452;2023-05-19T13:17:24;1.27;;;1.12;;
19645;SDS011;9971;52.446;13.452;2023-05-19T13:22:27;1.37;;;1.20;;
19645;SDS011;9971;52.446;13.452;2023-05-19T13:27:29;1.50;;;1.40;;
19645;SDS011;9971;52.446;13.452;2023-05-19T13:32:32;2.83;;;1.47;;
19645;SDS011;9971;52.446;13.452;2023-05-19T13:37:34;1.40;;;1.30;;
19645;SDS011;9971;52.446;13.452;2023-05-19T13:42:36;2.20;;;1.23;;
19645;SDS011;9971;52.446;13.452;2023-05-19T13:47:38;1.42;;;1.30;;
19645;SDS011;9971;52.446;13.452;2023-05-19T13:52:41;3.50;;;1.42;;
19645;SDS011;9971;52.446;13.452;2023-05-19T13:57:43;2.10;;;1.40;;
19645;SDS011;9971;52.446;13.452;2023-05-19T14:02:46;1.50;;;1.20;;
19645;SDS011;9971;52.446;13.452;2023-05-19T14:07:48;1.40;;;1.30;;
19645;SDS011;9971;52.446;13.452;2023-05-19T14:12:51;1.43;;;1.30;;
19645;SDS011;9971;52.446;13.452;2023-05-19T14:17:54;1.52;;;1.25;;
19645;SDS011;9971;52.446;13.452;2023-05-19T14:22:56;1.62;;;1.30;;
19645;SDS011;9971;52.446;13.452;2023-05-19T14:27:59;3.12;;;1.40;;
19645;SDS011;9971;52.446;13.452;2023-05-19T14:33:01;1.40;;;1.30;;
19645;SDS011;9971;52.446;13.452;2023-05-19T14:38:05;1.40;;;1.30;;
19645;SDS011;9971;52.446;13.452;2023-05-19T14:43:07;1.45;;;1.27;;
19645;SDS011;9971;52.446;13.452;2023-05-19T14:48:09;1.32;;;1.25;;
19645;SDS011;9971;52.446;13.452;2023-05-19T14:53:12;1.75;;;1.32;;
19645;SDS011;9971;52.446;13.452;2023-05-19T14:58:14;2.83;;;1.40;;
19645;SDS011;9971;52.446;13.452;2023-05-19T15:03:17;2.62;;;1.32;;
19645;SDS011;9971;52.446;13.452;2023-05-19T15:08:20;2.22;;;1.12;;
19645;SDS011;9971;52.446;13.452;2023-05-19T15:13:22;1.55;;;1.45;;
19645;SDS011;9971;52.446;13.452;2023-05-19T15:18:24;2.43;;;1.00;;
19645;SDS011;9971;52.446;13.452;2023-05-19T15:23:27;1.55;;;1.32;;
19645;SDS011;9971;52.446;13.452;2023-05-19T15:28:29;1.50;;;1.40;;
19645;SDS011;9971;52.446;13.452;2023-05-19T15:33:31;1.57;;;1.27;;
19645;SDS011;9971;52.446;13.452;2023-05-19T15:38:34;1.50;;;1.40;;
19645;SDS011;9971;52.446;13.452;2023-05-19T15:43:36;1.10;;;1.10;;
19645;SDS011;9971;52.446;13.452;2023-05-19T15:48:38;2.27;;;1.60;;
19645;SDS011;9971;52.446;13.452;2023-05-19T15:53:40;2.15;;;1.55;;
19645;SDS011;9971;52.446;13.452;2023-05-19T15:58:43;2.95;;;1.40;;
19645;SDS011;9971;52.446;13.452;2023-05-19T16:03:46;2.00;;;1.30;;
19645;SDS011;9971;52.446;13.452;2023-05-19T16:08:48;1.85;;;1.50;;
19645;SDS011;9971;52.446;13.452;2023-05-19T16:13:51;2.08;;;1.30;;
19645;SDS011;9971;52.446;13.452;2023-05-19T16:18:53;2.43;;;1.30;;
19645;SDS011;9971;52.446;13.452;2023-05-19T16:23:55;2.30;;;1.60;;
19645;SDS011;9971;52.446;13.452;2023-05-19T16:28:58;2.02;;;1.30;;
19645;SDS011;9971;52.446;13.452;2023-05-19T16:34:00;2.25;;;1.40;;
19645;SDS011;9971;52.446;13.452;2023-05-19T16:39:03;1.95;;;1.12;;
19645;SDS011;9971;52.446;13.452;2023-05-19T16:44:05;1.57;;;1.47;;
19645;SDS011;9971;52.446;13.452;2023-05-19T16:49:08;1.77;;;1.35;;
19645;SDS011;9971;52.446;13.452;2023-05-19T16:54:10;2.62;;;1.80;;
19645;SDS011;9971;52.446;13.452;2023-05-19T16:59:13;3.37;;;1.40;;
19645;SDS011;9971;52.446;13.452;2023-05-19T17:04:15;6.25;;;1.72;;
19645;SDS011;9971;52.446;13.452;2023-05-19T17:09:18;1.50;;;1.37;;
19645;SDS011;9971;52.446;13.452;2023-05-19T17:14:20;1.47;;;1.37;;
19645;SDS011;9971;52.446;13.452;2023-05-19T17:19:22;2.17;;;1.50;;
19645;SDS011;9971;52.446;13.452;2023-05-19T17:24:24;1.42;;;1.32;;
19645;SDS011;9971;52.446;13.452;2023-05-19T17:29:27;1.62;;;1.30;;
19645;SDS011;9971;52.446;13.452;2023-05-19T17:34:29;1.40;;;1.30;;
19645;SDS011;9971;52.446;13.452;2023-05-19T17:39:32;1.72;;;1.57;;
19645;SDS011;9971;52.446;13.452;2023-05-19T17:44:34;1.65;;;1.25;;
19645;SDS011;9971;52.446;13.452;2023-05-19T17:49:37;1.95;;;1.55;;
19645;SDS011;9971;52.446;13.452;2023-05-19T17:54:39;2.65;;;2.42;;
19645;SDS011;9971;52.446;13.452;2023-05-19T17:59:42;2.25;;;1.57;;
19645;SDS011;9971;52.446;13.452;2023-05-19T18:04:44;2.12;;;1.30;;
19645;SDS011;9971;52.446;13.452;2023-05-19T18:09:47;1.80;;;1.50;;
19645;SDS011;9971;52.446;13.452;2023-05-19T18:14:49;2.47;;;1.72;;
19645;SDS011;9971;52.446;13.452;2023-05-19T18:19:52;2.10;;;1.70;;
19645;SDS011;9971;52.446;13.452;2023-05-19T18:24:55;2.90;;;1.80;;
19645;SDS011;9971;52.446;13.452;2023-05-19T18:29:57;2.55;;;2.08;;
19645;SDS011;9971;52.446;13.452;2023-05-19T18:35:00;2.58;;;1.60;;
19645;SDS011;9971;52.446;13.452;2023-05-19T18:40:02;2.25;;;1.62;;
19645;SDS011;9971;52.446;13.452;2023-05-19T18:45:05;3.20;;;1.65;;
19645;SDS011;9971;52.446;13.452;2023-05-19T18:50:08;1.92;;;1.80;;
19645;SDS011;9971;52.446;13.452;2023-05-19T18:55:11;2.45;;;1.60;;
19645;SDS011;9971;52.446;13.452;2023-05-19T19:00:13;2.67;;;2.08;;
19645;SDS011;9971;52.446;13.452;2023-05-19T19:05:16;3.45;;;1.60;;
19645;SDS011;9971;52.446;13.452;2023-05-19T19:10:18;2.27;;;1.82;;
19645;SDS011;9971;52.446;13.452;2023-05-19T19:15:21;2.03;;;1.83;;
19645;SDS011;9971;52.446;13.452;2023-05-19T19:20:24;1.70;;;1.52;;
19645;SDS011;9971;52.446;13.452;2023-05-19T19:25:26;2.25;;;1.57;;
19645;SDS011;9971;52.446;13.452;2023-05-19T19:30:29;2.52;;;1.98;;
19645;SDS011;9971;52.446;13.452;2023-05-19T19:35:31;2.25;;;2.00;;
19645;SDS011;9971;52.446;13.452;2023-05-19T19:40:33;2.85;;;1.72;;
19645;SDS011;9971;52.446;13.452;2023-05-19T19:45:36;3.12;;;1.77;;
19645;SDS011;9971;52.446;13.452;2023-05-19T19:50:39;2.37;;;1.90;;
19645;SDS011;9971;52.446;13.452;2023-05-19T19:55:41;2.40;;;2.20;;
19645;SDS011;9971;52.446;13.452;2023-05-19T20:00:44;2.77;;;2.42;;
19645;SDS011;9971;52.446;13.452;2023-05-19T20:05:46;3.70;;;2.10;;
19645;SDS011;9971;52.446;13.452;2023-05-19T20:10:49;2.58;;;2.20;;
19645;SDS011;9971;52.446;13.452;2023-05-19T20:15:51;3.30;;;2.10;;
19645;SDS011;9971;52.446;13.452;2023-05-19T20:20:54;2.58;;;1.70;;
19645;SDS011;9971;52.446;13.452;2023-05-19T20:25:56;3.60;;;2.63;;
19645;SDS011;9971;52.446;13.452;2023-05-19T20:30:58;3.12;;;2.83;;
19645;SDS011;9971;52.446;13.452;2023-05-19T20:36:01;2.35;;;2.15;;
19645;SDS011;9971;52.446;13.452;2023-05-19T20:41:03;3.00;;;2.67;;
19645;SDS011;9971;52.446;13.452;2023-05-19T20:46:06;2.77;;;2.15;;
19645;SDS011;9971;52.446;13.452;2023-05-19T20:51:08;2.20;;;1.83;;
19645;SDS011;9971;52.446;13.452;2023-05-19T20:56:11;3.00;;;2.07;;
19645;SDS011;9971;52.446;13.452;2023-05-19T21:01:13;2.00;;;1.90;;
19645;SDS011;9971;52.446;13.452;2023-05-19T21:06:15;2.60;;;1.80;;
19645;SDS011;9971;52.446;13.452;2023-05-19T21:11:18;1.75;;;1.65;;
19645;SDS011;9971;52.446;13.452;2023-05-19T21:16:20;2.83;;;1.80;;
19645;SDS011;9971;52.446;13.452;2023-05-19T21:21:22;3.80;;;2.23;;
19645;SDS011;9971;52.446;13.452;2023-05-19T21:26:24;2.92;;;1.85;;
19645;SDS011;9971;52.446;13.452;2023-05-19T21:31:27;2.40;;;2.00;;
19645;SDS011;9971;52.446;13.452;2023-05-19T21:36:29;1.75;;;1.57;;
19645;SDS011;9971;52.446;13.452;2023-05-19T21:41:32;1.98;;;1.77;;
19645;SDS011;9971;52.446;13.452;2023-05-19T21:46:34;2.25;;;1.95;;
19645;SDS011;9971;52.446;13.452;2023-05-19T21:51:36;2.98;;;2.33;;
19645;SDS011;9971;52.446;13.452;2023-05-19T21:56:39;2.22;;;2.02;;
19645;SDS011;9971;52.446;13.452;2023-05-19T22:01:41;4.30;;;2.62;;
19645;SDS011;9971;52.446;13.452;2023-05-19T22:06:43;4.05;;;2.17;;
19645;SDS011;9971;52.446;13.452;2023-05-19T22:11:46;2.35;;;2.15;;
19645;SDS011;9971;52.446;13.452;2023-05-19T22:16:48;3.15;;;2.37;;
19645;SDS011;9971;52.446;13.452;2023-05-19T22:21:51;4.25;;;2.65;;
19645;SDS011;9971;52.446;13.452;2023-05-19T22:26:53;3.40;;;2.40;;
19645;SDS011;9971;52.446;13.452;2023-05-19T22:31:56;2.40;;;2.08;;
19645;SDS011;9971;52.446;13.452;2023-05-19T22:36:58;2.08;;;1.90;;
19645;SDS011;9971;52.446;13.452;2023-05-19T22:42:00;5.00;;;2.47;;
19645;SDS011;9971;52.446;13.452;2023-05-19T22:47:03;4.00;;;2.45;;
19645;SDS011;9971;52.446;13.452;2023-05-19T22:52:07;2.77;;;2.15;;
19645;SDS011;9971;52.446;13.452;2023-05-19T22:57:08;3.13;;;2.07;;
19645;SDS011;9971;52.446;13.452;2023-05-19T23:02:10;2.60;;;2.40;;
19645;SDS011;9971;52.446;13.452;2023-05-19T23:07:12;3.08;;;2.40;;
19645;SDS011;9971;52.446;13.452;2023-05-19T23:12:15;2.50;;;2.30;;
19645;SDS011;9971;52.446;13.452;2023-05-19T23:17:17;2.60;;;2.30;;
19645;SDS011;9971;52.446;13.452;2023-05-19T23:22:20;2.35;;;2.00;;
19645;SDS011;9971;52.446;13.452;2023-05-19T23:27:22;3.00;;;2.30;;
19645;SDS011;9971;52.446;13.452;2023-05-19T23:32:25;2.40;;;2.20;;
19645;SDS011;9971;52.446;13.452;2023-05-19T23:37:27;2.63;;;2.27;;
19645;SDS011;9971;52.446;13.452;2023-05-19T23:42:29;2.15;;;1.95;;
19645;SDS011;9971;52.446;13.452;2023-05-19T23:47:31;3.00;;;2.42;;
19645;SDS011;9971;52.446;13.452;2023-05-19T23:52:34;4.03;;;2.60;;
19645;SDS011;9971;52.446;13.452;2023-05-19T23:57:36;2.60;;;1.87;;
